Time;durP1;ratioP1;P1;durP2;ratioP2;P2;SDS_P1;SDS_P2;PMS_P1;PMS_P2;Temp;Humidity;BMP_temperature;BMP_pressure;BME280_temperature;BME280_humidity;BME280_pressure;Samples;Min_cycle;Max_cycle;Signal;HPM_P1;HPM_P2
2022/12/28 00:01:54;;;;;;;442.30;418.50;;;6.10;99.90;;;;;;5070044;28;20379;-59
2022/12/28 00:04:20;;;;;;;415.13;393.17;;;6.10;99.90;;;;;;5070770;28;20391;-57
2022/12/28 00:06:46;;;;;;;394.17;373.37;;;6.10;99.90;;;;;;5071324;28;20407;-58
2022/12/28 00:09:11;;;;;;;407.83;386.58;;;6.10;99.90;;;;;;5071671;28;20400;-59
2022/12/28 00:11:37;;;;;;;382.95;363.08;;;6.10;99.90;;;;;;5054974;28;20395;-59
2022/12/28 00:14:03;;;;;;;372.48;353.08;;;6.10;99.90;;;;;;5053878;28;20491;-59
2022/12/28 00:16:32;;;;;;;375.40;355.80;;;6.10;99.90;;;;;;5052313;28;20868;-57
2022/12/28 00:19:00;;;;;;;358.88;340.15;;;6.10;99.90;;;;;;5053978;28;20380;-59
2022/12/28 00:21:27;;;;;;;357.08;338.77;;;6.10;99.90;;;;;;5051334;28;20402;-57
2022/12/28 00:23:54;;;;;;;332.38;315.45;;;6.10;99.90;;;;;;5051807;28;21013;-59
2022/12/28 00:26:20;;;;;;;342.55;325.33;;;6.10;99.90;;;;;;5052603;28;20384;-58
2022/12/28 00:28:46;;;;;;;331.95;314.73;;;6.10;99.90;;;;;;5053737;28;20741;-58
2022/12/28 00:31:12;;;;;;;330.98;313.90;;;6.10;99.90;;;;;;5055484;28;20395;-59
2022/12/28 00:33:38;;;;;;;337.75;320.55;;;6.10;99.90;;;;;;5072132;28;20391;-59
2022/12/28 00:36:04;;;;;;;331.95;315.25;;;6.10;99.90;;;;;;5073839;28;20384;-59
2022/12/28 00:38:30;;;;;;;326.08;309.42;;;6.10;99.90;;;;;;5051583;28;20380;-57
2022/12/28 00:40:59;;;;;;;333.63;316.35;;;6.00;99.90;;;;;;5050884;28;20382;-59
2022/12/28 00:43:26;;;;;;;319.75;303.73;;;6.00;99.90;;;;;;5052074;28;20791;-58
2022/12/28 00:45:51;;;;;;;328.05;311.60;;;6.00;99.90;;;;;;5051245;28;20395;-59
2022/12/28 00:48:17;;;;;;;310.30;294.93;;;6.00;99.90;;;;;;5051799;28;20372;-59
2022/12/28 00:50:43;;;;;;;313.25;297.48;;;6.00;99.90;;;;;;5051528;28;20567;-59
2022/12/28 00:53:09;;;;;;;304.25;288.85;;;6.10;99.90;;;;;;5052286;28;20391;-59
2022/12/28 00:55:36;;;;;;;311.67;295.63;;;6.10;99.90;;;;;;5051953;28;20403;-59
2022/12/28 00:58:02;;;;;;;307.00;291.35;;;6.10;99.90;;;;;;5051540;28;20407;-58
2022/12/28 01:00:28;;;;;;;313.85;297.75;;;6.10;99.90;;;;;;5052465;28;20391;-59
2022/12/28 01:02:54;;;;;;;309.15;293.35;;;6.10;99.90;;;;;;5052340;28;20390;-59
2022/12/28 01:05:20;;;;;;;301.40;286.20;;;6.10;99.90;;;;;;5069633;28;20422;-59
2022/12/28 01:07:46;;;;;;;282.80;268.52;;;6.10;99.90;;;;;;5051603;28;20423;-59
2022/12/28 01:10:12;;;;;;;300.00;284.95;;;6.10;99.90;;;;;;5051785;28;20388;-59
2022/12/28 01:12:37;;;;;;;277.75;263.80;;;6.10;99.90;;;;;;5051882;28;20403;-59
2022/12/28 01:15:18;;;;;;;262.52;249.27;;;6.10;99.90;;;;;;5065891;28;20657;-59
2022/12/28 01:17:43;;;;;;;263.00;250.05;;;6.10;99.90;;;;;;5065286;28;20790;-60
2022/12/28 01:20:09;;;;;;;264.47;251.47;;;6.10;99.90;;;;;;5065785;28;20592;-61
2022/12/28 01:22:35;;;;;;;256.23;243.32;;;6.00;99.90;;;;;;5065356;28;20365;-61
2022/12/28 01:25:01;;;;;;;278.75;264.42;;;6.00;99.90;;;;;;5064970;28;20392;-59
2022/12/28 01:27:26;;;;;;;264.15;251.27;;;6.10;99.90;;;;;;5064374;28;20384;-58
2022/12/28 01:29:52;;;;;;;252.43;239.43;;;6.10;99.90;;;;;;5065396;28;20650;-60
2022/12/28 01:32:17;;;;;;;258.13;245.25;;;6.00;99.90;;;;;;5064822;28;20552;-60
2022/12/28 01:34:43;;;;;;;246.67;234.33;;;6.00;99.90;;;;;;5065096;28;20847;-60
2022/12/28 01:37:08;;;;;;;250.47;237.77;;;6.00;99.90;;;;;;5067060;28;20529;-60
2022/12/28 01:39:33;;;;;;;248.00;235.25;;;6.00;99.90;;;;;;5066604;28;20698;-60
2022/12/28 01:42:00;;;;;;;252.07;239.53;;;6.00;99.90;;;;;;5067296;28;20450;-60
2022/12/28 01:44:25;;;;;;;242.23;230.10;;;6.00;99.90;;;;;;5066087;28;20689;-59
2022/12/28 01:47:08;;;;;;;255.10;242.32;;;6.00;99.90;;;;;;5065586;28;20676;-60
2022/12/28 01:49:42;;;;;;;236.50;224.60;;;6.00;99.90;;;;;;5064637;28;20519;-60
2022/12/28 01:52:40;;;;;;;229.02;217.70;;;6.00;99.90;;;;;;5064419;28;20399;-59
2022/12/28 01:55:10;;;;;;;239.40;227.65;;;6.00;99.90;;;;;;5055922;28;20412;-60
2022/12/28 01:57:50;;;;;;;238.68;226.82;;;6.00;99.90;;;;;;5062908;28;20392;-60
2022/12/28 02:00:16;;;;;;;229.57;218.10;;;6.00;99.90;;;;;;5061722;28;20732;-60
2022/12/28 02:02:50;;;;;;;231.18;219.50;;;6.00;99.90;;;;;;5060480;28;20393;-59
2022/12/28 02:05:17;;;;;;;225.60;214.27;;;6.00;99.90;;;;;;5061832;28;20627;-60
2022/12/28 02:07:48;;;;;;;224.50;213.27;;;6.00;99.90;;;;;;5061627;28;20395;-60
2022/12/28 02:10:15;;;;;;;231.82;220.27;;;6.00;99.90;;;;;;5063030;28;20385;-59
2022/12/28 02:12:41;;;;;;;237.75;225.90;;;6.00;99.90;;;;;;5065015;28;20400;-60
2022/12/28 02:15:07;;;;;;;223.38;212.27;;;6.00;99.90;;;;;;5064079;28;20420;-60
2022/12/28 02:17:33;;;;;;;219.23;208.20;;;6.00;99.90;;;;;;5065203;28;20380;-60
2022/12/28 02:19:59;;;;;;;215.00;204.15;;;6.00;99.90;;;;;;5067804;28;20395;-59
2022/12/28 02:22:39;;;;;;;223.88;212.70;;;6.00;99.90;;;;;;5066582;28;20395;-60
2022/12/28 02:25:42;;;;;;;228.75;217.15;;;6.00;99.90;;;;;;5061204;28;20386;-58
2022/12/28 02:28:50;;;;;;;233.95;222.05;;;6.00;99.90;;;;;;5051023;28;20409;-61
2022/12/28 02:31:36;;;;;;;212.75;201.88;;;6.00;99.90;;;;;;5036543;28;20400;-60
2022/12/28 02:34:11;;;;;;;226.90;215.45;;;6.10;99.90;;;;;;5049944;28;20837;-58
2022/12/28 02:36:44;;;;;;;231.02;219.40;;;6.10;99.90;;;;;;5049328;28;20393;-59
2022/12/28 02:39:18;;;;;;;245.48;233.25;;;6.20;99.90;;;;;;5051459;28;20381;-58
2022/12/28 02:41:44;;;;;;;229.30;217.80;;;6.20;99.90;;;;;;5050513;28;20383;-59
2022/12/28 02:44:10;;;;;;;224.48;213.13;;;6.10;99.90;;;;;;5048846;28;20409;-60
2022/12/28 02:52:30;;;;;;;226.90;215.50;;;6.10;99.90;;;;;;5050198;28;20389;-58
2022/12/28 02:58:51;;;;;;;282.27;268.05;;;6.00;99.90;;;;;;5052665;28;20506;-58
2022/12/28 03:01:28;;;;;;;271.95;258.30;;;5.90;99.90;;;;;;5052261;28;20386;-60
2022/12/28 03:04:25;;;;;;;286.20;271.80;;;5.80;99.90;;;;;;5052096;28;20567;-59
2022/12/28 03:10:19;;;;;;;312.85;297.25;;;5.70;99.90;;;;;;5032858;28;20395;-60
2022/12/28 03:12:51;;;;;;;326.95;310.20;;;5.70;99.90;;;;;;5049157;28;20385;-59
2022/12/28 03:15:33;;;;;;;361.58;343.10;;;5.70;99.90;;;;;;5037470;28;20428;-61
2022/12/28 03:32:01;;;;;;;416.35;395.17;;;5.50;99.90;;;;;;5052574;28;20416;-60
2022/12/28 03:34:26;;;;;;;411.13;390.08;;;5.50;99.90;;;;;;5035884;28;20546;-61
2022/12/28 03:37:16;;;;;;;434.17;411.50;;;5.50;99.90;;;;;;5035229;28;20400;-59
2022/12/28 03:40:11;;;;;;;430.30;408.05;;;5.50;99.90;;;;;;5036555;28;20373;-61
2022/12/28 03:45:43;;;;;;;454.03;429.93;;;5.50;99.90;;;;;;5054372;28;20966;-60
2022/12/28 03:48:10;;;;;;;445.95;422.58;;;5.40;99.90;;;;;;5054526;28;20479;-61
2022/12/28 03:50:38;;;;;;;487.80;462.02;;;5.40;99.90;;;;;;5036737;28;20389;-60
2022/12/28 03:53:04;;;;;;;472.15;446.95;;;5.40;99.90;;;;;;5038082;28;20404;-61
2022/12/28 03:55:30;;;;;;;476.38;450.95;;;5.40;99.90;;;;;;5036914;28;20401;-61
2022/12/28 03:57:55;;;;;;;492.80;466.23;;;5.40;99.90;;;;;;5036992;28;20385;-61
2022/12/28 04:00:21;;;;;;;471.50;446.33;;;5.40;99.90;;;;;;5034387;28;20388;-61
2022/12/28 04:02:47;;;;;;;527.97;499.75;;;5.40;99.90;;;;;;5050953;28;20394;-61
2022/12/28 04:05:12;;;;;;;539.83;510.20;;;5.40;99.90;;;;;;5051212;28;20393;-61
2022/12/28 04:07:38;;;;;;;525.20;495.97;;;5.30;99.90;;;;;;5033145;28;20488;-61
2022/12/28 04:10:04;;;;;;;533.25;504.00;;;5.30;99.90;;;;;;5033067;28;20379;-61
2022/12/28 04:12:29;;;;;;;549.67;520.20;;;5.30;99.90;;;;;;5051491;28;20397;-61
2022/12/28 04:14:55;;;;;;;516.70;489.20;;;5.30;99.90;;;;;;5048472;28;20706;-60
2022/12/28 04:17:20;;;;;;;534.73;505.60;;;5.30;99.90;;;;;;5052203;28;20400;-59
2022/12/28 04:19:45;;;;;;;543.05;513.00;;;5.20;99.90;;;;;;5053098;28;20677;-61
2022/12/28 04:22:11;;;;;;;545.13;515.03;;;5.20;99.90;;;;;;5055680;28;20397;-61
2022/12/28 04:24:36;;;;;;;522.33;493.87;;;5.20;99.90;;;;;;5052768;28;20447;-60
2022/12/28 04:27:02;;;;;;;531.38;501.58;;;5.30;99.90;;;;;;5052284;28;20448;-59
2022/12/28 04:29:27;;;;;;;547.50;516.27;;;5.30;99.90;;;;;;5051882;28;20402;-58
2022/12/28 04:31:53;;;;;;;549.77;518.50;;;5.30;99.90;;;;;;5051872;28;20805;-61
2022/12/28 04:34:18;;;;;;;558.17;526.58;;;5.30;99.90;;;;;;5052128;28;20491;-61
2022/12/28 04:36:44;;;;;;;576.57;543.83;;;5.30;99.90;;;;;;5051938;28;20396;-62
2022/12/28 04:39:10;;;;;;;557.80;526.10;;;5.30;99.90;;;;;;5052112;28;20437;-61
2022/12/28 04:41:35;;;;;;;569.35;537.40;;;5.30;99.90;;;;;;5051564;28;20416;-62
2022/12/28 04:44:01;;;;;;;566.00;534.33;;;5.20;99.90;;;;;;5050213;28;20432;-61
2022/12/28 04:46:26;;;;;;;561.75;530.22;;;5.20;99.90;;;;;;5049151;28;20666;-61
2022/12/28 04:48:52;;;;;;;559.37;528.10;;;5.20;99.90;;;;;;5050230;28;20399;-61
2022/12/28 04:51:26;;;;;;;572.97;540.53;;;5.20;99.90;;;;;;5050696;28;20385;-61
2022/12/28 04:53:52;;;;;;;592.88;559.30;;;5.20;99.90;;;;;;5050192;28;20413;-61
2022/12/28 04:56:19;;;;;;;566.97;535.03;;;5.10;99.90;;;;;;5050736;28;20389;-61
2022/12/28 04:58:48;;;;;;;585.28;551.85;;;5.10;99.90;;;;;;5049936;28;20393;-61
2022/12/28 05:01:16;;;;;;;571.58;539.55;;;5.20;99.90;;;;;;5049373;28;20386;-61
2022/12/28 05:03:43;;;;;;;559.63;528.10;;;5.20;99.90;;;;;;5049974;28;20408;-61
2022/12/28 05:06:15;;;;;;;568.70;536.30;;;5.10;99.90;;;;;;5049453;28;20393;-63
2022/12/28 05:08:41;;;;;;;584.35;551.60;;;5.10;99.90;;;;;;5051431;28;20684;-60
2022/12/28 05:11:10;;;;;;;548.25;517.33;;;5.10;99.90;;;;;;5048138;28;20808;-61
2022/12/28 05:13:36;;;;;;;547.42;516.75;;;5.10;99.90;;;;;;5049357;28;20409;-60
2022/12/28 05:16:07;;;;;;;506.63;478.95;;;5.00;99.90;;;;;;5048453;28;20776;-61
2022/12/28 05:18:33;;;;;;;470.02;445.33;;;5.00;99.90;;;;;;5047265;28;20389;-59
2022/12/28 05:21:03;;;;;;;439.43;416.90;;;5.00;99.90;;;;;;5046236;28;20404;-61
2022/12/28 05:23:30;;;;;;;393.33;373.38;;;5.00;99.90;;;;;;5048128;28;20644;-61
2022/12/28 05:25:56;;;;;;;409.33;387.92;;;5.00;99.90;;;;;;5048887;28;20431;-61
2022/12/28 05:28:23;;;;;;;357.63;339.27;;;5.00;99.90;;;;;;5047104;28;20921;-57
2022/12/28 05:30:49;;;;;;;324.45;307.63;;;4.90;99.90;;;;;;5046288;28;20460;-59
2022/12/28 05:33:15;;;;;;;330.60;313.87;;;4.90;99.90;;;;;;5046882;28;20657;-60
2022/12/28 05:35:40;;;;;;;355.77;338.03;;;4.90;99.90;;;;;;5047946;28;20381;-60
2022/12/28 05:38:06;;;;;;;369.33;350.27;;;4.90;99.90;;;;;;5047955;28;20389;-61
2022/12/28 05:40:32;;;;;;;380.80;359.90;;;4.90;99.90;;;;;;5048187;28;20662;-61
2022/12/28 05:42:58;;;;;;;308.20;292.48;;;4.90;99.90;;;;;;5048913;28;20447;-60
2022/12/28 05:45:24;;;;;;;244.60;231.70;;;4.90;99.90;;;;;;5048076;28;20459;-61
2022/12/28 05:47:50;;;;;;;254.10;241.25;;;4.90;99.90;;;;;;5046815;28;20393;-60
2022/12/28 05:50:15;;;;;;;290.60;276.10;;;4.90;99.90;;;;;;5048964;28;20669;-60
2022/12/28 05:52:41;;;;;;;309.38;294.02;;;4.90;99.90;;;;;;5048838;28;20831;-60
2022/12/28 05:55:07;;;;;;;282.60;268.53;;;4.90;99.90;;;;;;5049282;28;20451;-59
2022/12/28 05:57:33;;;;;;;240.68;228.60;;;5.00;99.90;;;;;;5047919;28;20385;-61
2022/12/28 05:59:58;;;;;;;203.00;192.63;;;4.90;99.90;;;;;;5048373;28;20397;-61
2022/12/28 06:02:26;;;;;;;189.10;179.13;;;4.90;99.90;;;;;;5052542;28;20377;-61
2022/12/28 06:04:54;;;;;;;154.65;146.55;;;5.00;99.90;;;;;;5051105;28;20491;-61
2022/12/28 06:07:21;;;;;;;196.32;186.27;;;4.90;99.90;;;;;;5050887;28;20420;-59
2022/12/28 06:09:46;;;;;;;207.03;196.30;;;5.00;99.90;;;;;;5050727;28;20398;-59
2022/12/28 06:12:12;;;;;;;147.10;139.60;;;5.00;99.90;;;;;;5050634;28;21000;-61
2022/12/28 06:14:38;;;;;;;166.18;157.52;;;5.10;99.90;;;;;;5053011;28;20464;-61
2022/12/28 06:17:03;;;;;;;175.02;165.95;;;5.00;99.90;;;;;;5052816;28;20836;-62
2022/12/28 06:19:29;;;;;;;225.40;214.05;;;5.00;99.90;;;;;;5052022;28;20500;-60
2022/12/28 06:21:55;;;;;;;201.32;191.23;;;5.00;99.90;;;;;;5053725;28;20472;-61
2022/12/28 06:24:20;;;;;;;167.70;158.97;;;5.00;99.90;;;;;;5054473;28;20455;-62
2022/12/28 06:26:46;;;;;;;137.07;129.33;;;5.00;99.90;;;;;;5054296;28;20389;-60
2022/12/28 06:29:12;;;;;;;115.65;109.70;;;5.00;99.90;;;;;;5053837;28;20401;-60
2022/12/28 06:31:42;;;;;;;126.43;119.78;;;5.00;99.90;;;;;;5052505;28;20398;-61
2022/12/28 06:34:09;;;;;;;124.28;117.47;;;5.00;99.90;;;;;;5050460;28;20412;-60
2022/12/28 06:36:38;;;;;;;128.90;122.03;;;5.00;99.90;;;;;;5051191;28;20891;-61
2022/12/28 06:39:07;;;;;;;110.88;105.07;;;5.00;99.90;;;;;;5050093;28;20396;-60
2022/12/28 06:41:32;;;;;;;121.30;114.93;;;5.10;99.90;;;;;;5048733;28;20381;-60
2022/12/28 06:43:58;;;;;;;115.90;109.88;;;5.10;99.90;;;;;;5045561;28;20743;-61
2022/12/28 06:46:27;;;;;;;108.93;103.32;;;5.10;99.90;;;;;;5045734;28;20760;-60
2022/12/28 06:48:53;;;;;;;140.90;133.63;;;5.10;99.90;;;;;;5044330;28;20417;-58
2022/12/28 06:51:20;;;;;;;124.70;118.43;;;5.10;99.90;;;;;;5044043;28;20773;-61
2022/12/28 06:53:47;;;;;;;128.07;121.63;;;5.10;99.90;;;;;;5044030;28;20681;-59
2022/12/28 06:56:17;;;;;;;126.45;119.72;;;5.10;99.90;;;;;;5044272;28;20462;-61
2022/12/28 06:58:45;;;;;;;128.57;121.97;;;5.20;99.90;;;;;;5044408;28;20744;-59
2022/12/28 07:01:17;;;;;;;119.07;113.00;;;5.20;99.90;;;;;;5045391;28;20397;-60
2022/12/28 07:03:44;;;;;;;131.93;125.00;;;5.20;99.90;;;;;;5046680;28;20381;-59
2022/12/28 07:06:10;;;;;;;110.43;104.82;;;5.20;99.90;;;;;;5043766;28;20396;-60
2022/12/28 07:08:37;;;;;;;120.60;114.35;;;5.30;99.90;;;;;;5043563;28;20773;-61
2022/12/28 07:11:18;;;;;;;100.10;94.90;;;5.30;99.90;;;;;;5042180;28;20432;-61
2022/12/28 07:13:44;;;;;;;106.30;100.55;;;5.40;99.90;;;;;;5041346;28;20452;-64
2022/12/28 07:16:15;;;;;;;87.20;82.50;;;5.50;99.90;;;;;;5041886;28;20734;-58
2022/12/28 07:18:42;;;;;;;115.22;109.28;;;5.50;99.90;;;;;;5043134;28;20381;-61
2022/12/28 07:21:11;;;;;;;143.05;135.63;;;5.50;99.90;;;;;;5042255;28;20444;-61
2022/12/28 07:23:37;;;;;;;134.45;127.40;;;5.50;99.90;;;;;;5042737;28;20876;-61
2022/12/28 07:26:05;;;;;;;108.88;103.18;;;5.50;99.90;;;;;;5047238;28;20425;-61
2022/12/28 07:28:31;;;;;;;111.63;105.60;;;5.50;99.90;;;;;;5046271;28;20443;-59
2022/12/28 07:30:56;;;;;;;102.07;96.77;;;5.60;99.90;;;;;;5046334;28;20404;-61
2022/12/28 07:33:22;;;;;;;133.88;126.78;;;5.70;99.90;;;;;;5046552;28;20408;-60
2022/12/28 07:35:48;;;;;;;191.67;181.67;;;5.70;99.90;;;;;;5045424;28;20423;-61
2022/12/28 07:38:13;;;;;;;173.07;164.03;;;5.70;99.90;;;;;;5046148;28;20400;-58
2022/12/28 07:40:39;;;;;;;170.30;161.50;;;5.70;99.90;;;;;;5042951;28;20853;-60
2022/12/28 07:43:04;;;;;;;112.07;106.38;;;5.80;99.90;;;;;;5044125;28;20480;-61
2022/12/28 07:45:30;;;;;;;98.28;93.13;;;5.80;99.90;;;;;;5042264;28;20386;-60
2022/12/28 07:47:56;;;;;;;99.77;94.57;;;5.80;99.90;;;;;;5039620;28;20401;-58
2022/12/28 07:50:21;;;;;;;117.68;111.43;;;5.90;99.90;;;;;;5042545;28;20385;-63
2022/12/28 07:52:47;;;;;;;112.33;106.27;;;5.90;99.90;;;;;;5041384;28;20397;-60
2022/12/28 07:55:12;;;;;;;103.53;98.03;;;5.90;99.90;;;;;;5041263;28;20457;-61
2022/12/28 07:57:38;;;;;;;140.95;133.35;;;5.90;99.90;;;;;;5041510;28;20386;-59
2022/12/28 08:00:06;;;;;;;129.33;122.47;;;6.00;99.90;;;;;;5042319;28;20627;-58
2022/12/28 08:02:31;;;;;;;143.13;135.43;;;6.00;99.90;;;;;;5043258;28;20446;-58
2022/12/28 08:04:57;;;;;;;121.30;114.93;;;6.00;99.90;;;;;;5040526;28;20528;-60
2022/12/28 08:07:22;;;;;;;133.85;126.70;;;6.10;99.90;;;;;;5040747;28;20500;-62
2022/12/28 08:09:48;;;;;;;126.90;120.20;;;6.20;99.90;;;;;;5040549;28;20762;-62
2022/12/28 08:12:13;;;;;;;135.23;128.13;;;6.20;99.90;;;;;;5037965;28;20389;-61
2022/12/28 08:14:39;;;;;;;136.18;128.95;;;6.20;99.90;;;;;;5037805;28;20413;-59
2022/12/28 08:17:04;;;;;;;123.65;116.93;;;6.20;99.90;;;;;;5038959;28;20845;-59
2022/12/28 08:19:30;;;;;;;150.47;142.37;;;6.30;99.90;;;;;;5040950;28;20389;-61
2022/12/28 08:21:55;;;;;;;167.27;158.10;;;6.30;99.90;;;;;;5041687;28;20389;-61
2022/12/28 08:24:21;;;;;;;165.68;156.85;;;6.30;99.90;;;;;;5039867;28;20492;-62
2022/12/28 08:26:47;;;;;;;175.83;166.40;;;6.30;99.90;;;;;;5038228;28;20385;-60
2022/12/28 08:29:17;;;;;;;173.70;164.52;;;6.30;99.90;;;;;;5035117;28;20421;-61
2022/12/28 08:31:43;;;;;;;159.00;150.52;;;6.40;99.90;;;;;;5032288;28;20385;-60
2022/12/28 08:34:17;;;;;;;148.77;140.90;;;6.40;99.90;;;;;;5034912;28;20666;-61
2022/12/28 08:36:42;;;;;;;139.32;131.90;;;6.40;99.90;;;;;;5034846;28;20602;-61
2022/12/28 08:39:08;;;;;;;151.25;143.00;;;6.40;99.90;;;;;;5038107;28;20428;-61
2022/12/28 08:41:34;;;;;;;166.75;157.93;;;6.50;99.90;;;;;;5033995;28;20395;-61
2022/12/28 08:43:59;;;;;;;142.90;135.30;;;6.50;99.90;;;;;;5035959;28;20465;-61
2022/12/28 08:46:30;;;;;;;146.97;139.00;;;6.60;99.90;;;;;;5035047;28;20395;-60
2022/12/28 08:48:58;;;;;;;156.15;147.63;;;6.50;99.90;;;;;;5037168;28;20420;-61
2022/12/28 08:51:25;;;;;;;145.27;137.52;;;6.60;99.90;;;;;;5038565;28;20514;-60
2022/12/28 08:53:51;;;;;;;174.35;164.98;;;6.60;99.90;;;;;;5041865;28;20432;-61
2022/12/28 08:56:18;;;;;;;156.02;147.48;;;6.60;99.90;;;;;;5040376;28;20476;-59
2022/12/28 08:58:45;;;;;;;187.90;177.65;;;6.60;99.90;;;;;;5038939;28;20405;-59
2022/12/28 09:01:19;;;;;;;171.55;162.20;;;6.70;99.90;;;;;;5039311;28;20389;-61
2022/12/28 09:03:46;;;;;;;164.15;155.10;;;6.70;99.90;;;;;;5039135;28;20673;-60
2022/12/28 09:06:15;;;;;;;159.18;150.48;;;6.70;99.90;;;;;;5037744;28;20377;-61
2022/12/28 09:08:40;;;;;;;132.73;125.63;;;6.70;99.90;;;;;;5036849;28;20622;-61
2022/12/28 09:11:08;;;;;;;134.17;127.07;;;6.80;99.90;;;;;;5036110;28;20513;-61
2022/12/28 09:13:35;;;;;;;115.87;109.63;;;6.80;99.90;;;;;;5039887;28;20836;-61
2022/12/28 09:16:03;;;;;;;128.88;121.90;;;6.90;99.90;;;;;;5032895;28;20385;-63
2022/12/28 09:18:28;;;;;;;134.85;127.47;;;6.90;99.90;;;;;;5030677;28;20449;-59
2022/12/28 09:20:54;;;;;;;130.85;123.65;;;6.90;99.90;;;;;;5028932;28;20548;-63
2022/12/28 09:23:20;;;;;;;146.38;138.13;;;6.90;99.90;;;;;;5030265;28;20912;-61
2022/12/28 09:25:46;;;;;;;145.23;137.02;;;6.90;99.90;;;;;;5033423;28;20393;-59
2022/12/28 09:28:12;;;;;;;140.60;132.87;;;7.00;99.90;;;;;;5033007;28;20726;-61
2022/12/28 09:30:37;;;;;;;136.05;128.55;;;7.00;99.90;;;;;;5033371;28;20650;-60
2022/12/28 09:35:47;;;;;;;133.25;125.97;;;7.10;99.90;;;;;;5039642;28;20654;-61
2022/12/28 09:38:13;;;;;;;132.73;125.32;;;7.10;99.90;;;;;;5047199;28;20385;-60
2022/12/28 09:40:39;;;;;;;134.73;127.30;;;7.10;99.90;;;;;;5048757;28;20383;-61
2022/12/28 09:43:04;;;;;;;131.38;124.18;;;7.10;99.90;;;;;;5048247;28;20686;-61
2022/12/28 09:45:32;;;;;;;133.13;125.70;;;7.20;99.90;;;;;;5048352;28;20532;-61
2022/12/28 09:48:05;;;;;;;148.82;140.43;;;7.20;99.90;;;;;;5048856;28;20926;-60
2022/12/28 09:50:33;;;;;;;155.60;146.97;;;7.20;99.90;;;;;;5047832;28;20651;-60
2022/12/28 09:53:06;;;;;;;170.40;160.43;;;7.20;99.90;;;;;;5048485;28;20393;-61
2022/12/28 09:55:40;;;;;;;155.98;147.18;;;7.30;99.90;;;;;;5049739;28;20496;-61
2022/12/28 09:58:13;;;;;;;164.23;155.23;;;7.30;99.90;;;;;;5050871;28;20988;-60
2022/12/28 10:00:47;;;;;;;146.82;138.85;;;7.30;99.90;;;;;;5050524;28;20753;-61
2022/12/28 10:03:22;;;;;;;147.50;139.32;;;7.40;99.90;;;;;;5049485;28;20405;-61
2022/12/28 10:05:50;;;;;;;167.60;158.48;;;7.40;99.90;;;;;;5046543;28;20377;-60
2022/12/28 10:08:19;;;;;;;157.17;148.60;;;7.40;99.90;;;;;;5049614;28;20535;-62
2022/12/28 10:10:46;;;;;;;147.73;139.75;;;7.40;99.90;;;;;;5046137;28;20458;-60
2022/12/28 10:13:23;;;;;;;164.48;155.23;;;7.40;99.90;;;;;;5045137;28;20401;-61
2022/12/28 10:15:50;;;;;;;148.15;140.18;;;7.40;99.90;;;;;;5048444;28;20389;-60
2022/12/28 10:18:25;;;;;;;165.73;156.52;;;7.50;99.90;;;;;;5045704;28;20386;-60
2022/12/28 10:20:52;;;;;;;222.43;210.25;;;7.50;99.90;;;;;;5046883;28;20411;-61
2022/12/28 10:23:25;;;;;;;205.00;193.23;;;7.50;99.90;;;;;;5046012;28;20389;-62
2022/12/28 10:25:54;;;;;;;160.27;151.60;;;7.50;99.90;;;;;;5044662;28;20386;-61
2022/12/28 10:28:21;;;;;;;159.93;151.23;;;7.60;99.90;;;;;;5045572;28;21071;-60
2022/12/28 10:31:08;;;;;;;167.43;158.25;;;7.50;99.90;;;;;;5044177;28;21064;-61
2022/12/28 10:33:38;;;;;;;166.52;157.32;;;7.50;99.90;;;;;;5043597;28;20401;-61
2022/12/28 10:36:04;;;;;;;149.00;140.87;;;7.60;99.90;;;;;;5043716;28;20385;-62
2022/12/28 10:38:32;;;;;;;167.40;158.38;;;7.50;99.90;;;;;;5041578;28;20945;-62
2022/12/28 10:41:04;;;;;;;149.85;141.75;;;7.60;99.90;;;;;;5041548;28;20649;-62
2022/12/28 10:43:35;;;;;;;158.25;149.57;;;7.60;99.90;;;;;;5044679;28;20463;-60
2022/12/28 10:46:04;;;;;;;146.32;138.38;;;7.60;99.90;;;;;;5045125;28;20381;-62
2022/12/28 10:48:33;;;;;;;144.98;137.25;;;7.60;99.90;;;;;;5045253;28;20420;-62
2022/12/28 10:51:20;;;;;;;159.25;150.63;;;7.70;99.90;;;;;;5044701;28;20393;-62
2022/12/28 10:53:49;;;;;;;196.00;185.43;;;7.70;99.90;;;;;;5044017;28;20401;-61
2022/12/28 10:56:32;;;;;;;221.40;209.20;;;7.70;99.90;;;;;;5045075;28;20390;-61
2022/12/28 10:59:09;;;;;;;171.30;161.75;;;7.70;99.90;;;;;;5042415;28;20974;-61
2022/12/28 11:01:35;;;;;;;200.57;189.55;;;7.80;99.90;;;;;;5041696;28;20389;-60
2022/12/28 11:04:24;;;;;;;265.02;250.40;;;7.90;99.90;;;;;;5044180;28;20995;-61
2022/12/28 11:06:49;;;;;;;252.93;239.00;;;7.90;99.90;;;;;;5042882;28;20517;-61
2022/12/28 11:09:27;;;;;;;266.57;251.87;;;7.90;99.90;;;;;;5036967;28;20652;-60
2022/12/28 11:11:55;;;;;;;276.35;261.05;;;7.90;99.90;;;;;;5042599;28;20389;-60
2022/12/28 11:14:37;;;;;;;312.52;294.77;;;7.90;99.90;;;;;;5047385;28;20428;-61
2022/12/28 11:17:22;;;;;;;288.00;271.77;;;8.00;99.90;;;;;;5044885;28;20386;-58
2022/12/28 11:19:51;;;;;;;291.33;274.83;;;8.00;99.90;;;;;;5045746;28;20380;-56
2022/12/28 11:22:24;;;;;;;316.02;298.20;;;8.20;99.90;;;;;;5046972;28;20377;-60
2022/12/28 11:24:50;;;;;;;375.08;355.02;;;8.30;99.90;;;;;;5044777;28;20420;-60
2022/12/28 11:27:18;;;;;;;419.55;396.27;;;8.20;99.90;;;;;;5045354;28;20506;-60
2022/12/28 11:29:47;;;;;;;384.20;363.53;;;8.20;99.90;;;;;;5045419;28;20525;-60
2022/12/28 11:32:29;;;;;;;359.58;340.13;;;8.10;99.90;;;;;;5045978;28;20381;-61
2022/12/28 11:34:56;;;;;;;250.73;237.65;;;8.10;99.90;;;;;;5044434;28;20406;-61
2022/12/28 11:37:22;;;;;;;247.75;234.45;;;8.10;99.90;;;;;;5042574;28;20434;-61
2022/12/28 11:39:50;;;;;;;269.00;254.88;;;8.10;99.90;;;;;;5043245;28;20797;-61
2022/12/28 11:42:31;;;;;;;285.02;269.65;;;8.10;99.90;;;;;;5042789;28;20389;-60
2022/12/28 11:44:57;;;;;;;311.42;294.15;;;8.10;99.90;;;;;;5042087;28;20402;-60
2022/12/28 11:47:32;;;;;;;325.45;307.65;;;8.10;99.90;;;;;;5042157;28;20445;-60
2022/12/28 11:50:41;;;;;;;320.15;302.60;;;8.10;99.90;;;;;;5042004;28;20393;-60
2022/12/28 11:53:32;;;;;;;264.55;250.52;;;8.10;99.90;;;;;;5042597;28;20377;-60
2022/12/28 11:56:03;;;;;;;223.30;211.63;;;8.10;99.90;;;;;;5039092;28;20567;-61
2022/12/28 11:58:29;;;;;;;224.88;212.88;;;8.10;99.90;;;;;;5039985;28;21068;-62
2022/12/28 12:00:55;;;;;;;216.90;204.83;;;8.10;99.90;;;;;;5040549;28;20385;-61
2022/12/28 12:03:56;;;;;;;217.80;205.95;;;8.10;99.90;;;;;;5042533;28;20409;-59
2022/12/28 12:06:43;;;;;;;243.80;230.75;;;8.10;99.90;;;;;;5039921;28;20460;-60
2022/12/28 12:09:22;;;;;;;286.75;270.75;;;8.10;99.90;;;;;;5034615;28;20730;-60
2022/12/28 12:11:55;;;;;;;239.23;226.40;;;8.10;99.90;;;;;;5035250;28;20385;-61
2022/12/28 12:14:42;;;;;;;229.70;217.40;;;8.10;99.90;;;;;;5038343;28;20413;-60
2022/12/28 12:17:34;;;;;;;285.55;270.38;;;8.10;99.90;;;;;;5037470;28;20388;-60
2022/12/28 12:20:05;;;;;;;267.05;253.00;;;8.10;99.90;;;;;;5038906;28;20447;-59
2022/12/28 12:22:39;;;;;;;260.95;247.18;;;8.10;99.90;;;;;;5038830;28;20377;-61
2022/12/28 12:25:27;;;;;;;214.10;202.57;;;8.10;99.90;;;;;;5040790;28;20385;-61
2022/12/28 12:27:58;;;;;;;219.20;207.30;;;8.20;99.90;;;;;;5040087;28;20393;-60
2022/12/28 12:30:23;;;;;;;224.70;212.48;;;8.20;99.90;;;;;;5041902;28;20395;-61
2022/12/28 12:33:11;;;;;;;241.77;228.83;;;8.20;99.90;;;;;;5040653;28;20385;-61
2022/12/28 12:36:01;;;;;;;275.98;261.23;;;8.20;99.90;;;;;;5041378;28;20500;-61
2022/12/28 12:38:44;;;;;;;240.27;227.57;;;8.30;99.90;;;;;;5042468;28;20677;-61
2022/12/28 12:41:24;;;;;;;231.75;219.15;;;8.30;99.90;;;;;;5041955;28;20442;-61
2022/12/28 12:44:17;;;;;;;254.27;240.55;;;8.30;99.90;;;;;;5041048;28;20411;-58
2022/12/28 12:47:21;;;;;;;279.58;264.35;;;8.30;99.90;;;;;;5042204;28;20450;-59
2022/12/28 12:50:11;;;;;;;282.13;266.63;;;8.20;99.90;;;;;;5040417;28;20403;-59
2022/12/28 12:53:00;;;;;;;271.75;256.90;;;8.20;99.90;;;;;;5038366;28;20393;-62
2022/12/28 12:55:54;;;;;;;277.48;262.90;;;8.20;99.90;;;;;;5038903;28;20401;-61
2022/12/28 12:58:42;;;;;;;279.45;264.42;;;8.20;99.90;;;;;;5039401;28;20401;-62
2022/12/28 13:01:25;;;;;;;297.20;281.23;;;8.20;99.90;;;;;;5038012;28;20420;-60
2022/12/28 13:03:52;;;;;;;287.70;272.35;;;8.30;99.90;;;;;;5036896;28;20390;-60
2022/12/28 13:06:23;;;;;;;239.13;226.40;;;8.30;99.90;;;;;;5038048;28;20392;-62